Time;durP1;ratioP1;P1;durP2;ratioP2;P2;SDS_P1;SDS_P2;PMS_P1;PMS_P2;Temp;Humidity;BMP_temperature;BMP_pressure;BME280_temperature;BME280_humidity;BME280_pressure;Samples;Min_cycle;Max_cycle;Signal;HPM_P1;HPM_P2
2022/04/07 00:01:49;;;;;;;;;;;11.20;99.90;;;;;;5011171;28;19930;-63
2022/04/07 00:04:14;;;;;;;;;;;11.20;99.90;;;;;;5012194;28;20366;-64
2022/04/07 00:06:40;;;;;;;;;;;11.10;99.90;;;;;;5009795;28;19910;-62
2022/04/07 00:09:05;;;;;;;;;;;11.10;99.90;;;;;;5010357;28;19920;-63
2022/04/07 00:11:31;;;;;;;;;;;11.10;99.90;;;;;;5024511;28;19921;-62
2022/04/07 00:13:56;;;;;;;;;;;11.10;99.90;;;;;;5010691;28;19914;-62
2022/04/07 00:16:22;;;;;;;;;;;11.10;99.90;;;;;;5012789;28;20361;-62
2022/04/07 00:18:47;;;;;;;;;;;11.00;99.90;;;;;;5009367;28;19968;-63
2022/04/07 00:21:24;;;;;;;;;;;11.10;99.90;;;;;;5009526;28;19917;-64
2022/04/07 00:23:53;;;;;;;;;;;11.00;99.90;;;;;;5010081;28;19924;-63
2022/04/07 00:26:19;;;;;;;;;;;11.10;99.90;;;;;;5009973;28;19925;-63
2022/04/07 00:28:44;;;;;;;;;;;11.00;99.90;;;;;;5011475;28;19910;-63
2022/04/07 00:31:11;;;;;;;;;;;11.00;99.90;;;;;;5011116;28;20027;-63
2022/04/07 00:33:37;;;;;;;;;;;11.00;99.90;;;;;;5009622;28;19920;-63
2022/04/07 00:36:04;;;;;;;;;;;11.00;99.90;;;;;;5009327;28;19914;-60
2022/04/07 00:38:30;;;;;;;;;;;11.10;99.90;;;;;;5009934;28;19921;-61
2022/04/07 00:40:55;;;;;;;;;;;11.10;99.90;;;;;;5010106;28;20302;-63
2022/04/07 00:43:31;;;;;;;;;;;11.00;99.90;;;;;;5012352;28;19937;-64
2022/04/07 00:45:57;;;;;;;;;;;11.10;99.90;;;;;;5009422;28;20005;-63
2022/04/07 00:48:23;;;;;;;;;;;11.10;99.90;;;;;;5009111;28;19914;-63
2022/04/07 00:50:49;;;;;;;;;;;11.10;99.90;;;;;;5009393;28;19917;-63
2022/04/07 00:53:14;;;;;;;;;;;11.10;99.90;;;;;;5009362;28;19918;-62
2022/04/07 00:55:41;;;;;;;;;;;11.10;99.90;;;;;;5011581;28;19917;-63
2022/04/07 00:58:06;;;;;;;;;;;11.10;99.90;;;;;;5010408;28;20000;-63
2022/04/07 01:00:34;;;;;;;;;;;11.10;99.90;;;;;;5008112;28;20005;-62
2022/04/07 01:02:59;;;;;;;;;;;11.20;99.90;;;;;;5008865;28;19983;-62
2022/04/07 01:05:25;;;;;;;;;;;11.10;99.90;;;;;;5008970;28;19914;-63
2022/04/07 01:07:51;;;;;;;;;;;11.10;99.90;;;;;;5010297;28;20401;-62
2022/04/07 01:10:18;;;;;;;;;;;11.10;99.90;;;;;;5011397;28;19921;-63
2022/04/07 01:12:44;;;;;;;;;;;11.10;99.90;;;;;;5008972;28;19914;-62
2022/04/07 01:15:09;;;;;;;;;;;11.20;99.90;;;;;;5008382;28;19914;-63
2022/04/07 01:17:35;;;;;;;;;;;11.20;99.90;;;;;;5008284;28;19917;-61
2022/04/07 01:20:05;;;;;;;;;;;11.20;99.90;;;;;;5008722;28;19999;-61
2022/04/07 01:22:30;;;;;;;;;;;11.20;99.90;;;;;;5011651;28;20560;-62
2022/04/07 01:24:56;;;;;;;;;;;11.20;99.90;;;;;;5009218;28;20290;-64
2022/04/07 01:27:24;;;;;;;;;;;11.20;99.90;;;;;;5008395;28;19913;-64
2022/04/07 01:29:52;;;;;;;;;;;11.20;99.90;;;;;;5007709;28;19920;-64
2022/04/07 01:32:23;;;;;;;;;;;11.20;99.90;;;;;;5008817;28;19914;-63
2022/04/07 01:34:49;;;;;;;;;;;11.20;99.90;;;;;;5009846;28;19927;-63
2022/04/07 01:37:16;;;;;;;;;;;11.20;99.90;;;;;;5010992;28;19909;-62
2022/04/07 01:39:43;;;;;;;;;;;11.20;99.90;;;;;;5008369;28;19913;-62
2022/04/07 01:42:09;;;;;;;;;;;11.20;99.90;;;;;;5008285;28;20302;-63
2022/04/07 01:44:38;;;;;;;;;;;11.20;99.90;;;;;;5007613;28;19976;-64
2022/04/07 01:47:03;;;;;;;;;;;11.20;99.90;;;;;;5008341;28;19922;-63
2022/04/07 01:49:30;;;;;;;;;;;11.20;99.90;;;;;;5011572;28;19910;-64
2022/04/07 01:51:55;;;;;;;;;;;11.20;99.90;;;;;;5010041;28;19916;-65
2022/04/07 01:54:21;;;;;;;;;;;11.20;99.90;;;;;;5008386;28;19914;-64
2022/04/07 01:56:48;;;;;;;;;;;11.20;99.90;;;;;;5008210;28;20321;-64
2022/04/07 01:59:13;;;;;;;;;;;11.20;99.90;;;;;;5007714;28;19913;-65
2022/04/07 02:01:39;;;;;;;;;;;11.20;99.90;;;;;;5010631;28;19976;-65
2022/04/07 02:04:04;;;;;;;;;;;11.20;99.90;;;;;;5011828;28;20368;-64
2022/04/07 02:06:30;;;;;;;;;;;11.20;99.90;;;;;;5007849;28;19913;-65
2022/04/07 02:08:56;;;;;;;;;;;11.10;99.90;;;;;;5007472;28;19922;-64
2022/04/07 02:11:22;;;;;;;;;;;11.10;99.90;;;;;;5008052;28;19918;-64
2022/04/07 02:13:48;;;;;;;;;;;11.10;99.90;;;;;;5008923;28;19910;-64
2022/04/07 02:16:14;;;;;;;;;;;11.10;99.90;;;;;;5009846;28;19916;-63
2022/04/07 02:18:40;;;;;;;;;;;11.10;99.90;;;;;;5007883;28;20019;-64
2022/04/07 02:21:06;;;;;;;;;;;11.10;99.90;;;;;;5007598;28;20289;-65
2022/04/07 02:23:34;;;;;;;;;;;11.10;99.90;;;;;;5007655;28;19913;-65
2022/04/07 02:26:00;;;;;;;;;;;11.10;99.90;;;;;;5006545;28;19914;-65
2022/04/07 02:28:25;;;;;;;;;;;11.10;99.90;;;;;;5011189;28;19914;-64
2022/04/07 02:30:51;;;;;;;;;;;11.20;99.90;;;;;;5007754;28;19914;-65
2022/04/07 02:33:16;;;;;;;;;;;11.10;99.90;;;;;;5007499;28;19920;-64
2022/04/07 02:35:42;;;;;;;;;;;11.20;99.90;;;;;;5007720;28;20271;-64
2022/04/07 02:38:07;;;;;;;;;;;11.20;99.90;;;;;;5007587;28;20413;-64
2022/04/07 02:40:33;;;;;;;;;;;11.20;99.90;;;;;;5010385;28;19910;-65
2022/04/07 02:42:58;;;;;;;;;;;11.20;99.90;;;;;;5007823;28;19921;-65
2022/04/07 02:45:24;;;;;;;;;;;11.20;99.90;;;;;;5007971;28;19949;-64
2022/04/07 02:47:49;;;;;;;;;;;11.20;99.90;;;;;;5008768;28;19913;-65
2022/04/07 02:50:16;;;;;;;;;;;11.20;99.90;;;;;;5007527;28;19920;-65
2022/04/07 02:52:42;;;;;;;;;;;11.20;99.90;;;;;;5009599;28;19909;-64
2022/04/07 02:55:08;;;;;;;;;;;11.20;99.90;;;;;;5008353;28;19968;-64
2022/04/07 02:57:35;;;;;;;;;;;11.20;99.90;;;;;;5007195;28;19922;-63
2022/04/07 03:00:02;;;;;;;;;;;11.20;99.90;;;;;;5007361;28;19914;-66
2022/04/07 03:02:27;;;;;;;;;;;11.10;99.90;;;;;;5007792;28;19921;-64
2022/04/07 03:04:53;;;;;;;;;;;11.20;99.90;;;;;;5008206;28;19924;-64
2022/04/07 03:07:19;;;;;;;;;;;11.10;99.90;;;;;;5009756;28;20377;-66
2022/04/07 03:09:45;;;;;;;;;;;11.20;99.90;;;;;;5007351;28;19945;-64
2022/04/07 03:12:11;;;;;;;;;;;11.10;99.90;;;;;;5006642;28;19948;-65
2022/04/07 03:14:37;;;;;;;;;;;11.10;99.90;;;;;;5007262;28;19920;-65
2022/04/07 03:17:02;;;;;;;;;;;11.10;99.90;;;;;;5007232;28;19914;-63
2022/04/07 03:19:28;;;;;;;;;;;11.10;99.90;;;;;;5010589;28;19925;-65
2022/04/07 03:21:55;;;;;;;;;;;11.20;99.90;;;;;;5007572;28;20294;-65
2022/04/07 03:24:20;;;;;;;;;;;11.20;99.90;;;;;;5010731;28;19914;-64
2022/04/07 03:26:46;;;;;;;;;;;11.20;99.90;;;;;;5010425;28;19913;-64
2022/04/07 03:29:11;;;;;;;;;;;11.20;99.90;;;;;;5010564;28;20420;-63
2022/04/07 03:31:37;;;;;;;;;;;11.20;99.90;;;;;;5013439;28;20008;-65
2022/04/07 03:34:02;;;;;;;;;;;11.20;99.90;;;;;;5011704;28;19913;-63
2022/04/07 03:36:28;;;;;;;;;;;11.20;99.90;;;;;;5010849;28;20459;-64
2022/04/07 03:38:53;;;;;;;;;;;11.20;99.90;;;;;;5010656;28;20271;-63
2022/04/07 03:41:19;;;;;;;;;;;11.20;99.90;;;;;;5010299;28;19975;-64
2022/04/07 03:43:45;;;;;;;;;;;11.20;99.90;;;;;;5012525;28;19914;-64
2022/04/07 03:46:11;;;;;;;;;;;11.30;99.90;;;;;;5011782;28;19910;-65
2022/04/07 03:48:36;;;;;;;;;;;11.30;99.90;;;;;;5010790;28;19917;-64
2022/04/07 03:51:02;;;;;;;;;;;11.30;99.90;;;;;;5010345;28;19914;-63
2022/04/07 03:53:28;;;;;;;;;;;11.30;99.90;;;;;;5010644;28;19913;-64
2022/04/07 03:55:53;;;;;;;;;;;11.30;99.90;;;;;;5010853;28;19968;-65
2022/04/07 03:58:19;;;;;;;;;;;11.30;99.90;;;;;;5012937;28;19940;-61
2022/04/07 04:00:44;;;;;;;;;;;11.30;99.90;;;;;;5010187;28;19921;-65
2022/04/07 04:03:10;;;;;;;;;;;11.40;99.90;;;;;;5010637;28;20390;-64
2022/04/07 04:05:35;;;;;;;;;;;11.30;99.90;;;;;;5009963;28;19975;-66
2022/04/07 04:08:01;;;;;;;;;;;11.30;99.90;;;;;;5009976;28;20302;-66
2022/04/07 04:10:26;;;;;;;;;;;11.30;99.90;;;;;;5013895;28;19920;-65
2022/04/07 04:12:52;;;;;;;;;;;11.40;99.90;;;;;;5009867;28;19923;-65
2022/04/07 04:15:18;;;;;;;;;;;11.40;99.90;;;;;;5009902;28;20058;-66
2022/04/07 04:17:43;;;;;;;;;;;11.40;99.90;;;;;;5010119;28;19921;-65
2022/04/07 04:20:10;;;;;;;;;;;11.40;99.90;;;;;;5009460;28;19932;-65
2022/04/07 04:22:36;;;;;;;;;;;11.40;99.90;;;;;;5011734;28;19925;-65
2022/04/07 04:25:01;;;;;;;;;;;11.40;99.90;;;;;;5012254;28;19909;-65
2022/04/07 04:27:27;;;;;;;;;;;11.40;99.90;;;;;;5009707;28;20019;-63
2022/04/07 04:29:52;;;;;;;;;;;11.40;99.90;;;;;;5009691;28;20283;-65
2022/04/07 04:32:18;;;;;;;;;;;11.50;99.90;;;;;;5010076;28;19918;-65
2022/04/07 04:34:43;;;;;;;;;;;11.50;99.90;;;;;;5011886;28;20062;-65
2022/04/07 04:37:09;;;;;;;;;;;11.50;99.90;;;;;;5010557;28;19916;-67
2022/04/07 04:39:34;;;;;;;;;;;11.50;99.90;;;;;;5010082;28;19924;-66
2022/04/07 04:42:00;;;;;;;;;;;11.50;99.90;;;;;;5009787;28;20421;-64
2022/04/07 04:44:25;;;;;;;;;;;11.50;99.90;;;;;;5010177;28;19920;-64
2022/04/07 04:46:51;;;;;;;;;;;11.50;99.90;;;;;;5011394;28;19918;-65
2022/04/07 04:49:16;;;;;;;;;;;11.50;99.90;;;;;;5012021;28;19921;-64
2022/04/07 04:51:42;;;;;;;;;;;11.60;99.90;;;;;;5009742;28;20275;-64
2022/04/07 04:54:07;;;;;;;;;;;11.60;99.90;;;;;;5009413;28;19913;-63
2022/04/07 04:56:33;;;;;;;;;;;11.60;99.90;;;;;;5010089;28;19960;-64
2022/04/07 04:58:58;;;;;;;;;;;11.60;99.90;;;;;;5010373;28;19917;-64
2022/04/07 05:01:24;;;;;;;;;;;11.60;99.90;;;;;;5012699;28;20386;-65
2022/04/07 05:03:50;;;;;;;;;;;11.60;99.90;;;;;;5009588;28;20259;-66
2022/04/07 05:06:15;;;;;;;;;;;11.60;99.90;;;;;;5009311;28;20268;-65
2022/04/07 05:08:40;;;;;;;;;;;11.60;99.90;;;;;;5009313;28;19914;-66
2022/04/07 05:11:06;;;;;;;;;;;11.70;99.90;;;;;;5009474;28;19917;-66
2022/04/07 05:13:32;;;;;;;;;;;11.70;99.90;;;;;;5012943;28;20056;-62
2022/04/07 05:15:57;;;;;;;;;;;11.70;99.90;;;;;;5009633;28;19917;-60
2022/04/07 05:18:23;;;;;;;;;;;11.70;99.90;;;;;;5009117;28;19928;-61
2022/04/07 05:20:48;;;;;;;;;;;11.70;99.90;;;;;;5008730;28;19924;-62
2022/04/07 05:23:14;;;;;;;;;;;11.70;99.90;;;;;;5008937;28;20007;-63
2022/04/07 05:25:39;;;;;;;;;;;11.70;99.90;;;;;;5011556;28;20380;-64
2022/04/07 05:28:06;;;;;;;;;;;11.70;99.90;;;;;;5010405;28;19909;-62
2022/04/07 05:30:32;;;;;;;;;;;11.70;99.90;;;;;;5008890;28;19960;-65
2022/04/07 05:32:57;;;;;;;;;;;11.70;99.90;;;;;;5008774;28;19913;-63
2022/04/07 05:35:26;;;;;;;;;;;11.70;99.90;;;;;;5008783;28;20346;-65
2022/04/07 05:37:56;;;;;;;;;;;11.70;99.90;;;;;;5010260;28;19929;-63
2022/04/07 05:40:21;;;;;;;;;;;11.70;99.90;;;;;;5011757;28;19932;-64
2022/04/07 05:42:47;;;;;;;;;;;11.80;99.90;;;;;;5023893;28;20382;-63
2022/04/07 05:45:12;;;;;;;;;;;11.80;99.90;;;;;;5008250;28;19914;-63
2022/04/07 05:47:41;;;;;;;;;;;11.80;99.90;;;;;;5008355;28;19917;-63
2022/04/07 05:50:07;;;;;;;;;;;11.80;99.90;;;;;;5008443;28;19997;-64
2022/04/07 05:52:32;;;;;;;;;;;11.80;99.90;;;;;;5010072;28;20008;-65
2022/04/07 05:54:58;;;;;;;;;;;11.80;99.90;;;;;;5009053;28;20063;-65
2022/04/07 05:57:27;;;;;;;;;;;11.80;99.90;;;;;;5008023;28;20378;-62
2022/04/07 05:59:52;;;;;;;;;;;11.90;99.90;;;;;;5008668;28;19944;-63
2022/04/07 06:02:18;;;;;;;;;;;11.90;99.90;;;;;;5008315;28;19961;-63
2022/04/07 06:04:43;;;;;;;;;;;11.90;99.90;;;;;;5009295;28;19910;-63
2022/04/07 06:07:09;;;;;;;;;;;11.90;99.90;;;;;;5010876;28;19937;-62
2022/04/07 06:09:35;;;;;;;;;;;11.90;99.90;;;;;;5004484;28;20426;-62
2022/04/07 06:12:00;;;;;;;;;;;11.90;99.90;;;;;;5001678;28;19917;-59
2022/04/07 06:14:26;;;;;;;;;;;11.90;99.90;;;;;;5004393;28;19913;-59
2022/04/07 06:16:51;;;;;;;;;;;11.90;99.90;;;;;;5009622;28;20394;-59
2022/04/07 06:19:17;;;;;;;;;;;12.00;99.90;;;;;;5011175;28;19928;-60
2022/04/07 06:21:43;;;;;;;;;;;12.00;99.90;;;;;;5007436;28;19977;-59
2022/04/07 06:24:09;;;;;;;;;;;12.10;99.90;;;;;;5007765;28;19925;-59
2022/04/07 06:26:34;;;;;;;;;;;12.10;99.90;;;;;;5008695;28;19921;-59
2022/04/07 06:29:00;;;;;;;;;;;12.10;99.90;;;;;;5008456;28;19917;-59
2022/04/07 06:31:26;;;;;;;;;;;12.10;99.90;;;;;;5010128;28;19917;-59
2022/04/07 06:33:52;;;;;;;;;;;12.10;99.90;;;;;;5007434;28;19917;-60
2022/04/07 06:36:17;;;;;;;;;;;12.10;99.90;;;;;;5011201;28;20020;-59
2022/04/07 06:38:43;;;;;;;;;;;12.10;99.90;;;;;;5017623;28;20003;-61
2022/04/07 06:41:08;;;;;;;;;;;12.10;99.90;;;;;;5018102;28;20500;-59
2022/04/07 06:43:34;;;;;;;;;;;12.20;99.90;;;;;;5020122;28;19920;-59
2022/04/07 06:45:59;;;;;;;;;;;12.20;99.90;;;;;;5020486;28;19913;-60
2022/04/07 06:48:25;;;;;;;;;;;12.10;99.90;;;;;;5026872;28;19920;-59
2022/04/07 06:50:50;;;;;;;;;;;12.20;99.90;;;;;;5006711;28;19924;-60
2022/04/07 06:53:16;;;;;;;;;;;12.20;99.90;;;;;;5007614;28;19914;-59
2022/04/07 06:55:43;;;;;;;;;;;12.20;99.90;;;;;;5009992;28;19917;-66
2022/04/07 06:58:10;;;;;;;;;;;12.20;99.90;;;;;;5011209;28;20030;-66
2022/04/07 07:00:41;;;;;;;;;;;12.30;99.90;;;;;;5011355;28;19921;-66
2022/04/07 07:03:06;;;;;;;;;;;12.30;99.90;;;;;;5011248;28;19922;-58
2022/04/07 07:05:33;;;;;;;;;;;12.30;99.90;;;;;;5011397;28;19918;-60
2022/04/07 07:08:11;;;;;;;;;;;12.30;99.90;;;;;;5009542;28;19914;-59
2022/04/07 07:10:36;;;;;;;;;;;12.20;99.90;;;;;;5022051;28;19955;-59
2022/04/07 07:13:02;;;;;;;;;;;12.20;99.90;;;;;;5001367;28;20000;-57
2022/04/07 07:15:27;;;;;;;;;;;12.20;99.90;;;;;;5006468;28;19917;-59
2022/04/07 07:17:53;;;;;;;;;;;12.20;99.90;;;;;;5009152;28;19929;-60
2022/04/07 07:20:18;;;;;;;;;;;12.20;99.90;;;;;;5010049;28;20352;-59
2022/04/07 07:22:44;;;;;;;;;;;12.30;99.90;;;;;;5010686;28;19925;-58
2022/04/07 07:25:10;;;;;;;;;;;12.30;99.90;;;;;;5011219;28;19913;-59
2022/04/07 07:27:36;;;;;;;;;;;12.20;99.90;;;;;;5009085;28;20384;-59
2022/04/07 07:30:02;;;;;;;;;;;12.30;99.90;;;;;;5009646;28;19917;-57
2022/04/07 07:32:28;;;;;;;;;;;12.30;99.90;;;;;;5009332;28;19918;-58
2022/04/07 07:34:54;;;;;;;;;;;12.30;99.90;;;;;;5010594;28;19929;-59
2022/04/07 07:37:19;;;;;;;;;;;12.30;99.90;;;;;;5010359;28;20297;-59
2022/04/07 07:39:45;;;;;;;;;;;12.30;99.90;;;;;;5009385;28;19918;-59
2022/04/07 07:42:10;;;;;;;;;;;12.30;99.90;;;;;;5009158;28;20416;-60
2022/04/07 07:44:36;;;;;;;;;;;12.30;99.90;;;;;;5009400;28;20390;-60
2022/04/07 07:47:01;;;;;;;;;;;12.40;99.90;;;;;;5010538;28;19920;-60
2022/04/07 07:49:27;;;;;;;;;;;12.40;99.90;;;;;;5010969;28;19913;-59
2022/04/07 07:51:53;;;;;;;;;;;12.50;99.90;;;;;;5008167;28;20117;-59
2022/04/07 07:54:18;;;;;;;;;;;12.60;99.90;;;;;;5009253;28;20012;-58
2022/04/07 07:56:44;;;;;;;;;;;12.60;99.90;;;;;;5008583;28;19921;-59
2022/04/07 07:59:09;;;;;;;;;;;12.70;99.90;;;;;;5008498;28;19922;-59
2022/04/07 08:01:35;;;;;;;;;;;12.60;99.90;;;;;;5004943;28;19921;-59
2022/04/07 08:04:00;;;;;;;;;;;12.70;99.90;;;;;;5007699;28;20386;-59
2022/04/07 08:06:26;;;;;;;;;;;12.70;99.90;;;;;;5008474;28;20399;-59
2022/04/07 08:08:51;;;;;;;;;;;12.90;99.90;;;;;;5010758;28;19913;-60
2022/04/07 08:11:17;;;;;;;;;;;12.90;99.90;;;;;;5009901;28;19920;-61
2022/04/07 08:13:42;;;;;;;;;;;12.90;99.90;;;;;;5024727;28;20008;-59
2022/04/07 08:16:10;;;;;;;;;;;12.90;99.90;;;;;;5009871;28;19920;-59
2022/04/07 08:18:35;;;;;;;;;;;12.90;99.90;;;;;;5006666;28;19929;-59
2022/04/07 08:21:01;;;;;;;;;;;12.90;99.90;;;;;;5008618;28;19917;-58
2022/04/07 08:23:27;;;;;;;;;;;12.90;99.90;;;;;;5008410;28;19918;-60
2022/04/07 08:25:52;;;;;;;;;;;13.00;99.90;;;;;;5009475;28;19921;-59
2022/04/07 08:28:18;;;;;;;;;;;13.10;99.90;;;;;;5010511;28;20044;-59
2022/04/07 08:30:43;;;;;;;;;;;13.20;99.90;;;;;;5007343;28;19920;-58
2022/04/07 08:33:09;;;;;;;;;;;13.40;99.90;;;;;;5008442;28;20016;-60
2022/04/07 08:35:34;;;;;;;;;;;13.50;99.90;;;;;;5007809;28;19917;-60
2022/04/07 08:38:00;;;;;;;;;;;13.50;99.90;;;;;;5009374;28;19920;-59
2022/04/07 08:40:27;;;;;;;;;;;13.60;99.90;;;;;;5012927;28;19923;-61
2022/04/07 08:42:52;;;;;;;;;;;13.70;99.90;;;;;;5008131;28;19925;-61
2022/04/07 08:45:19;;;;;;;;;;;13.80;99.90;;;;;;5008208;28;19924;-62
2022/04/07 08:47:47;;;;;;;;;;;13.90;99.90;;;;;;5010458;28;19978;-60
2022/04/07 08:50:13;;;;;;;;;;;14.00;99.90;;;;;;5009432;28;19925;-57
2022/04/07 08:52:38;;;;;;;;;;;14.10;99.90;;;;;;5009521;28;19917;-58
2022/04/07 08:55:05;;;;;;;;;;;14.20;99.90;;;;;;5009552;28;19920;-59
2022/04/07 08:57:32;;;;;;;;;;;14.20;99.90;;;;;;5007225;28;19924;-58
2022/04/07 08:59:57;;;;;;;;;;;14.20;99.90;;;;;;5007884;28;19913;-60
2022/04/07 09:02:23;;;;;;;;;;;14.30;99.90;;;;;;5007255;28;19928;-60
2022/04/07 09:04:49;;;;;;;;;;;14.30;99.90;;;;;;5008581;28;19914;-59
2022/04/07 09:07:14;;;;;;;;;;;14.40;99.90;;;;;;5011480;28;19972;-59
2022/04/07 09:09:40;;;;;;;;;;;14.50;99.90;;;;;;5007855;28;19924;-60
2022/04/07 09:12:06;;;;;;;;;;;14.50;99.90;;;;;;5023283;28;20297;-59
2022/04/07 09:14:33;;;;;;;;;;;14.50;99.90;;;;;;5006691;28;19917;-58
2022/04/07 09:16:58;;;;;;;;;;;14.60;99.90;;;;;;5008350;28;19921;-58
2022/04/07 09:19:24;;;;;;;;;;;14.60;99.90;;;;;;5009110;28;19991;-58
2022/04/07 09:22:13;;;;;;;;;;;14.60;99.90;;;;;;5007007;28;19926;-59
2022/04/07 09:24:39;;;;;;;;;;;14.60;99.90;;;;;;5006189;28;19996;-59
2022/04/07 09:27:06;;;;;;;;;;;14.60;99.90;;;;;;5007053;28;20013;-59
2022/04/07 09:29:45;;;;;;;;;;;14.60;99.90;;;;;;5007632;28;20298;-58
2022/04/07 09:32:21;;;;;;;;;;;14.70;99.90;;;;;;5006936;28;19928;-58
2022/04/07 09:34:56;;;;;;;;;;;14.80;99.90;;;;;;5007916;28;19917;-58
2022/04/07 09:37:22;;;;;;;;;;;14.80;99.90;;;;;;5009079;28;19917;-59
2022/04/07 09:40:03;;;;;;;;;;;14.90;99.90;;;;;;5009066;28;19917;-58
2022/04/07 09:42:29;;;;;;;;;;;14.90;99.90;;;;;;5006091;28;19940;-59
2022/04/07 09:44:57;;;;;;;;;;;14.90;99.90;;;;;;5006990;28;19921;-59
2022/04/07 09:47:34;;;;;;;;;;;14.90;99.90;;;;;;5008769;28;19921;-59
2022/04/07 09:50:00;;;;;;;;;;;15.00;99.90;;;;;;5012516;28;19921;-59
2022/04/07 09:52:26;;;;;;;;;;;15.10;99.90;;;;;;5014733;28;19913;-61
2022/04/07 09:54:52;;;;;;;;;;;15.20;99.90;;;;;;5009963;28;20013;-58
2022/04/07 09:57:20;;;;;;;;;;;15.30;99.90;;;;;;5012768;28;20007;-62
2022/04/07 09:59:45;;;;;;;;;;;15.30;99.90;;;;;;5011229;28;19960;-58
2022/04/07 10:02:11;;;;;;;;;;;15.30;99.90;;;;;;5025355;28;20411;-60
2022/04/07 10:04:37;;;;;;;;;;;15.40;99.90;;;;;;5010256;28;19952;-59
2022/04/07 10:07:05;;;;;;;;;;;15.40;99.90;;;;;;5008111;28;20381;-60
2022/04/07 10:09:31;;;;;;;;;;;15.40;99.90;;;;;;5008286;28;19921;-58
2022/04/07 10:11:58;;;;;;;;;;;15.30;99.90;;;;;;5006185;28;19921;-57
2022/04/07 10:14:24;;;;;;;;;;;15.30;99.90;;;;;;5006642;28;19925;-62
2022/04/07 10:16:50;;;;;;;;;;;15.30;99.90;;;;;;5007417;28;19919;-59
2022/04/07 10:19:21;;;;;;;;;;;15.20;99.90;;;;;;5007949;28;20271;-57
2022/04/07 10:21:49;;;;;;;;;;;15.20;99.90;;;;;;5005585;28;19933;-60
2022/04/07 10:24:24;;;;;;;;;;;14.90;99.90;;;;;;5005859;28;19917;-58
2022/04/07 10:26:49;;;;;;;;;;;14.50;99.90;;;;;;5007267;28;20336;-60
2022/04/07 10:29:24;;;;;;;;;;;14.10;99.90;;;;;;5009918;28;20427;-57
2022/04/07 10:32:22;;;;;;;;;;;13.70;99.90;;;;;;5006951;28;19940;-59
2022/04/07 10:34:58;;;;;;;;;;;13.40;99.90;;;;;;5003105;28;19917;-59
2022/04/07 10:37:30;;;;;;;;;;;13.30;99.90;;;;;;5005317;28;19924;-59
2022/04/07 10:39:55;;;;;;;;;;;13.20;99.90;;;;;;5004568;28;19921;-60
2022/04/07 10:42:59;;;;;;;;;;;13.20;99.90;;;;;;5000296;28;19921;-56
2022/04/07 10:45:31;;;;;;;;;;;13.20;99.90;;;;;;4938913;28;19922;-60
2022/04/07 10:48:15;;;;;;;;;;;13.20;99.90;;;;;;4939480;28;19915;-58
2022/04/07 10:50:48;;;;;;;;;;;13.30;99.90;;;;;;4939368;29;20371;-59
2022/04/07 10:53:20;;;;;;;;;;;13.30;99.90;;;;;;4938839;28;19918;-58
2022/04/07 10:56:11;;;;;;;;;;;13.40;99.90;;;;;;4935092;29;19919;-60
2022/04/07 10:58:41;;;;;;;;;;;13.50;99.90;;;;;;4889240;29;19971;-59
2022/04/07 11:01:12;;;;;;;;;;;13.60;99.90;;;;;;4890853;29;19923;-59
2022/04/07 11:03:37;;;;;;;;;;;13.70;99.90;;;;;;4888785;29;19920;-58
2022/04/07 11:06:06;;;;;;;;;;;13.80;99.90;;;;;;4889586;29;19922;-59
2022/04/07 11:08:32;;;;;;;;;;;13.80;99.90;;;;;;4889108;29;19924;-61
2022/04/07 11:10:58;;;;;;;;;;;13.90;99.90;;;;;;4876427;29;19927;-60
2022/04/07 11:13:43;;;;;;;;;;;14.00;99.90;;;;;;4873057;29;19916;-61
2022/04/07 11:16:23;;;;;;;;;;;14.00;99.90;;;;;;4917754;28;19918;-59
2022/04/07 11:19:08;;;;;;;;;;;14.00;99.90;;;;;;4965165;28;19961;-59
2022/04/07 11:21:42;;;;;;;;;;;13.90;99.90;;;;;;4965186;28;19922;-59
2022/04/07 11:24:08;;;;;;;;;;;13.90;99.90;;;;;;4961483;28;19918;-60
2022/04/07 11:26:34;;;;;;;;;;;14.00;99.90;;;;;;4965142;28;19924;-59
2022/04/07 11:29:02;;;;;;;;;;;14.10;99.90;;;;;;4965443;28;19965;-60
2022/04/07 11:31:49;;;;;;;;;;;14.20;99.90;;;;;;4967449;28;20430;-59
2022/04/07 11:34:33;;;;;;;;;;;14.20;99.90;;;;;;4965284;28;19985;-59
2022/04/07 11:36:59;;;;;;;;;;;14.20;99.90;;;;;;5005945;28;19921;-60
2022/04/07 11:39:24;;;;;;;;;;;14.20;99.90;;;;;;5007990;28;19917;-59
2022/04/07 11:41:50;;;;;;;;;;;14.30;99.90;;;;;;5008173;28;20433;-59
2022/04/07 11:44:19;;;;;;;;;;;14.30;99.90;;;;;;5007816;28;20370;-55
2022/04/07 11:46:44;;;;;;;;;;;14.40;99.90;;;;;;5009609;28;19953;-58
2022/04/07 11:49:11;;;;;;;;;;;14.30;99.90;;;;;;5011463;28;19949;-57
2022/04/07 11:51:39;;;;;;;;;;;14.40;99.90;;;;;;5008687;28;19937;-59
2022/04/07 11:54:05;;;;;;;;;;;14.40;99.90;;;;;;5008813;28;19952;-57
2022/04/07 11:56:32;;;;;;;;;;;14.40;99.90;;;;;;5008968;28;20330;-59
2022/04/07 11:58:59;;;;;;;;;;;14.40;99.90;;;;;;5010238;28;19923;-61
2022/04/07 12:01:24;;;;;;;;;;;14.40;99.90;;;;;;5010811;28;19960;-59
2022/04/07 12:03:51;;;;;;;;;;;14.30;99.90;;;;;;5010166;28;20449;-60
2022/04/07 12:06:20;;;;;;;;;;;14.10;99.90;;;;;;5008659;28;20012;-60
2022/04/07 12:08:45;;;;;;;;;;;14.00;99.90;;;;;;5007782;28;20022;-60
2022/04/07 12:11:11;;;;;;;;;;;14.00;99.90;;;;;;5009187;28;20421;-59
2022/04/07 12:13:36;;;;;;;;;;;14.00;99.90;;;;;;5010141;28;20390;-60
2022/04/07 12:16:02;;;;;;;;;;;13.90;99.90;;;;;;5010388;28;20649;-60
2022/04/07 12:18:28;;;;;;;;;;;14.00;99.90;;;;;;5008170;28;19926;-61
2022/04/07 12:21:01;;;;;;;;;;;14.10;99.90;;;;;;5009715;28;19919;-60
2022/04/07 12:23:27;;;;;;;;;;;14.20;99.90;;;;;;5008359;28;19922;-59
2022/04/07 12:25:59;;;;;;;;;;;14.20;99.90;;;;;;5008642;28;20051;-60
2022/04/07 12:28:31;;;;;;;;;;;14.30;99.90;;;;;;5010396;28;19913;-61
2022/04/07 12:30:56;;;;;;;;;;;14.30;99.90;;;;;;5007341;28;19963;-60
2022/04/07 12:33:40;;;;;;;;;;;14.40;99.90;;;;;;5012724;28;19916;-59
2022/04/07 12:36:16;;;;;;;;;;;14.30;99.90;;;;;;5007465;28;19983;-60
2022/04/07 12:38:57;;;;;;;;;;;14.30;99.90;;;;;;5008622;28;19968;-60
2022/04/07 12:41:34;;;;;;;;;;;14.30;99.90;;;;;;5006283;28;19963;-59
2022/04/07 12:43:59;;;;;;;;;;;14.40;99.90;;;;;;5012930;28;20271;-61
2022/04/07 12:46:41;;;;;;;;;;;14.30;99.30;;;;;;5012953;28;19914;-60
2022/04/07 12:49:07;;;;;;;;;;;14.20;99.40;;;;;;5009913;28;20005;-60
2022/04/07 12:51:36;;;;;;;;;;;14.20;99.50;;;;;;5023573;28;20035;-59
2022/04/07 12:54:06;;;;;;;;;;;14.30;99.90;;;;;;5007411;28;19925;-59
2022/04/07 12:56:32;;;;;;;;;;;14.30;99.50;;;;;;5007384;28;19956;-59
2022/04/07 12:59:03;;;;;;;;;;;14.30;99.90;;;;;;5008789;28;19957;-59
2022/04/07 13:01:29;;;;;;;;;;;14.40;99.60;;;;;;5009656;28;19914;-60
2022/04/07 13:03:56;;;;;;;;;;;14.40;99.50;;;;;;5007640;28;19918;-60
2022/04/07 13:06:28;;;;;;;;;;;14.40;99.10;;;;;;5007086;28;20016;-59
2022/04/07 13:08:54;;;;;;;;;;;14.10;98.10;;;;;;5006044;28;20437;-61
2022/04/07 13:11:32;;;;;;;;;;;14.10;98.40;;;;;;5007682;28;20000;-61
2022/04/07 13:13:58;;;;;;;;;;;14.00;98.00;;;;;;5008497;28;19921;-60
2022/04/07 13:16:24;;;;;;;;;;;14.00;97.50;;;;;;5009486;28;19913;-60
2022/04/07 13:18:49;;;;;;;;;;;14.00;97.10;;;;;;5007234;28;19921;-60
2022/04/07 13:21:15;;;;;;;;;;;14.10;97.60;;;;;;5006728;28;20001;-59
2022/04/07 13:23:41;;;;;;;;;;;14.10;98.30;;;;;;5010426;28;20485;-59
2022/04/07 13:26:06;;;;;;;;;;;14.20;97.70;;;;;;5008323;28;19921;-59
2022/04/07 13:28:32;;;;;;;;;;;14.30;96.90;;;;;;5010273;28;19937;-60
2022/04/07 13:30:57;;;;;;;;;;;14.20;96.20;;;;;;5007033;28;19936;-60
2022/04/07 13:33:23;;;;;;;;;;;14.10;95.50;;;;;;5007000;28;19917;-59
2022/04/07 13:35:51;;;;;;;;;;;14.10;95.50;;;;;;5006732;28;20279;-59
2022/04/07 13:38:16;;;;;;;;;;;14.10;95.40;;;;;;5007501;28;20012;-60
2022/04/07 13:40:42;;;;;;;;;;;14.10;95.10;;;;;;5008266;28;20453;-59
2022/04/07 13:43:08;;;;;;;;;;;14.00;94.10;;;;;;5008940;28;19975;-59
2022/04/07 13:45:34;;;;;;;;;;;14.00;94.70;;;;;;5003117;28;19917;-59
2022/04/07 13:47:59;;;;;;;;;;;14.00;93.90;;;;;;5006636;28;19917;-60
2022/04/07 13:50:25;;;;;;;;;;;14.00;93.70;;;;;;5007378;28;20387;-60
2022/04/07 13:52:50;;;;;;;;;;;13.90;94.60;;;;;;5007575;28;19943;-59
2022/04/07 13:55:16;;;;;;;;;;;14.10;96.00;;;;;;5009101;28;19916;-59
2022/04/07 13:57:41;;;;;;;;;;;14.10;95.80;;;;;;5006400;28;19913;-61
2022/04/07 14:00:07;;;;;;;;;;;14.30;96.20;;;;;;5006862;28;19913;-60
2022/04/07 14:02:33;;;;;;;;;;;14.20;95.20;;;;;;5006544;28;19929;-59
2022/04/07 14:04:58;;;;;;;;;;;14.10;95.00;;;;;;5007521;28;19963;-60
2022/04/07 14:07:24;;;;;;;;;;;14.00;95.30;;;;;;5008459;28;20055;-60
2022/04/07 14:09:50;;;;;;;;;;;14.00;95.50;;;;;;5006912;28;20297;-60
2022/04/07 14:12:15;;;;;;;;;;;14.00;95.90;;;;;;5006463;28;19917;-60
2022/04/07 14:14:42;;;;;;;;;;;13.90;94.80;;;;;;5006535;28;19925;-60
2022/04/07 14:17:08;;;;;;;;;;;13.90;95.00;;;;;;5007033;28;19918;-60